Ozark Regional Airport
KBPK : now visible

Airfield :











YOU CAN JOIN US ON...

 
LOGIN :

Register | Disclaimer

   EN    FR    IT 

 









Legend :    VFR   Marginal VFR   IFR   Intensive IFR   Very Intensive IFR
Visi :
Ceiling :
>= 8 km
>= 3000ft
5 to 8 km
1000 to 3000 ft
1500m to 5 km
500 to 1000 ft
800 to 1500m
200 to 500 ft
< 800m
< 200 ft
Symbols :   Thunderstorms  Fog  Heavy snow  Heavy precipitations  Wind > 20 kt







- Airport Elevation : 928 ft


KBPK - Ozark Regional

CURRENT METAR :
  • 201553Z AUTO VRB03KT 10SM CLR 16/02 A3000 RMK AO2 SLP156 T01610022 TSNO

EXPIRED METARs :
  • 201453Z AUTO 35005KT 10SM CLR 14/01 A2999 RMK AO2 SLP154 T01390011 53016 TSNO
  • 201353Z AUTO 31005KT 10SM CLR 11/02 A2998 RMK AO2 SLP149 T01060022 TSNO

TAF KBPK
Valid from the 20 at 12:00 until the 21 at 12:00 UTC


201120Z 2012/2112 33007KT P6SM SKC
FM201700 29006KT P6SM SKC
FM210000 VRB04KT P6SM SKC
KZME FIR / North America



MET'MAP, your aeronautical weather chart ! - Copyright ORBIFLY December 2007 - Disclaimer

ORBIFLY MET'MAP TEAM :

Programming & Development : Alexandra Zaïnal
Concept & Development : Baudouin d'Aumeries
Co-Development & Prog : Marc-Olivier Méhu
Technical & hardware support : Manuel Goepfert

Contact : metmap@orbifly.com




SOURCES & CREDITS :

   NOAA       Earth
Advisory